Time;durP1;ratioP1;P1;durP2;ratioP2;P2;SDS_P1;SDS_P2;PMS_P1;PMS_P2;Temp;Humidity;BMP_temperature;BMP_pressure;BME280_temperature;BME280_humidity;BME280_pressure;Samples;Min_cycle;Max_cycle;Signal;HPM_P1;HPM_P2
2021/09/23 00:00:27;;;;;;;30.83;21.47;;;;;;;10.55;76.84;99452.11;2275407;76;21385;-79
2021/09/23 00:06:32;;;;;;;28.47;20.57;;;;;;;10.33;77.85;99443.78;2284812;77;21031;-79
2021/09/23 00:09:33;;;;;;;32.73;22.23;;;;;;;10.24;78.31;99430.53;2313881;75;20947;-80
2021/09/23 00:12:33;;;;;;;33.87;22.67;;;;;;;10.19;78.32;99432.13;2316884;75;21003;-79
2021/09/23 00:15:35;;;;;;;34.03;22.03;;;;;;;10.19;78.92;99435.61;2304281;75;20979;-80
2021/09/23 00:18:35;;;;;;;33.33;21.53;;;;;;;10.12;78.85;99432.83;2284289;76;20939;-79
2021/09/23 00:21:35;;;;;;;144.17;101.70;;;;;;;10.05;79.32;99433.53;2315349;76;20967;-80
2021/09/23 00:24:36;;;;;;;80.90;58.43;;;;;;;10.69;84.25;99428.06;2315023;76;20971;-79
2021/09/23 00:27:37;;;;;;;35.57;25.83;;;;;;;12.70;78.37;99428.00;2310574;76;21002;-80
2021/09/23 00:30:37;;;;;;;30.43;21.10;;;;;;;12.19;75.06;99424.25;2313269;76;21042;-79
2021/09/23 00:33:38;;;;;;;29.87;21.23;;;;;;;11.64;74.96;99427.25;2274242;76;20962;-80
2021/09/23 00:36:38;;;;;;;25.50;18.17;;;;;;;11.25;75.51;99430.89;2297520;77;21015;-77
2021/09/23 00:39:39;;;;;;;36.33;23.67;;;;;;;10.95;76.41;99432.92;2280942;77;20967;-80
2021/09/23 00:42:39;;;;;;;32.20;21.13;;;;;;;11.10;76.69;99424.95;2311265;77;21007;-81
2021/09/23 00:45:40;;;;;;;188.97;143.60;;;;;;;10.90;76.68;99418.89;2280798;76;20952;-80
2021/09/23 00:48:41;;;;;;;114.57;84.97;;;;;;;12.06;80.33;99412.27;2316345;76;20968;-81
2021/09/23 00:51:42;;;;;;;50.25;36.23;;;;;;;13.56;76.34;99401.02;2316036;76;20983;-80
2021/09/23 00:54:42;;;;;;;37.38;26.97;;;;;;;13.02;72.58;99403.52;2316180;77;20988;-80
2021/09/23 00:57:43;;;;;;;35.07;24.30;;;;;;;12.38;72.69;99406.20;2312747;76;20983;-81
2021/09/23 01:00:44;;;;;;;33.35;23.50;;;;;;;11.86;73.07;99407.59;2316345;76;20943;-80
2021/09/23 01:03:44;;;;;;;32.75;24.23;;;;;;;11.40;73.72;99408.98;2284266;76;20994;-80
2021/09/23 01:06:49;;;;;;;30.50;22.50;;;;;;;11.04;74.51;99402.63;2318071;76;20952;-80
2021/09/23 01:09:47;;;;;;;32.07;22.20;;;;;;;10.79;75.14;99401.70;2311790;75;20901;-81
2021/09/23 01:12:48;;;;;;;30.00;20.20;;;;;;;10.62;75.78;99385.70;2315487;76;20992;-80
2021/09/23 01:15:48;;;;;;;49.63;33.10;;;;;;;10.48;76.26;99375.41;2318091;77;21003;-81
2021/09/23 01:18:49;;;;;;;221.80;168.87;;;;;;;10.33;77.67;99377.24;2311642;76;20960;-82
2021/09/23 01:21:49;;;;;;;100.43;70.73;;;;;;;11.79;80.95;99390.48;2313740;76;20951;-80
2021/09/23 01:24:50;;;;;;;42.58;31.55;;;;;;;13.24;76.78;99391.12;2313922;76;20995;-79
2021/09/23 01:27:50;;;;;;;38.73;28.77;;;;;;;12.75;72.86;99402.31;2312369;77;20940;-76
2021/09/23 01:30:50;;;;;;;37.65;26.77;;;;;;;12.02;72.66;99388.64;2310812;77;20928;-79
2021/09/23 01:33:51;;;;;;;34.57;24.50;;;;;;;11.54;73.39;99379.58;2319512;76;21331;-80
2021/09/23 01:36:51;;;;;;;30.25;20.70;;;;;;;11.18;74.00;99377.64;2310565;76;20964;-80
2021/09/23 01:39:52;;;;;;;31.00;19.97;;;;;;;10.89;74.68;99369.69;2288235;76;20944;-80
2021/09/23 01:42:52;;;;;;;29.77;20.43;;;;;;;10.68;75.21;99359.72;2307675;77;20991;-80
2021/09/23 01:45:53;;;;;;;27.00;19.57;;;;;;;10.51;75.78;99354.17;2316465;76;20948;-80
2021/09/23 01:48:53;;;;;;;24.97;19.87;;;;;;;10.35;76.21;99356.40;2317201;76;21312;-81
2021/09/23 01:51:54;;;;;;;30.23;20.07;;;;;;;10.21;76.69;99362.20;2313655;76;20966;-80
2021/09/23 01:54:54;;;;;;;25.47;19.03;;;;;;;10.15;77.04;99351.61;2315294;76;20968;-81
2021/09/23 01:57:55;;;;;;;27.53;19.97;;;;;;;10.09;77.34;99354.08;2309307;76;21035;-80
2021/09/23 02:00:55;;;;;;;27.00;19.77;;;;;;;10.01;77.55;99346.52;2308175;77;20952;-80
2021/09/23 02:03:56;;;;;;;28.30;20.10;;;;;;;9.91;77.93;99343.25;2308908;76;20960;-79
2021/09/23 02:06:56;;;;;;;30.60;20.10;;;;;;;9.81;78.12;99337.37;2284106;77;21368;-81
2021/09/23 02:09:57;;;;;;;38.00;27.43;;;;;;;9.72;78.66;99329.34;2370158;75;21291;-80
2021/09/23 02:12:57;;;;;;;57.03;40.07;;;;;;;9.66;80.33;99326.17;2291748;76;20951;-81
2021/09/23 02:15:58;;;;;;;34.10;24.97;;;;;;;10.87;80.39;99315.67;2335501;75;20955;-81
2021/09/23 02:18:59;;;;;;;39.00;23.10;;;;;;;10.78;77.71;99309.43;2377185;75;20952;-76
2021/09/23 02:21:59;;;;;;;40.13;27.47;;;;;;;10.57;78.09;99303.81;2286222;77;21041;-81
2021/09/23 02:25:00;;;;;;;31.40;23.27;;;;;;;11.08;78.73;99296.45;2315781;75;21007;-80
2021/09/23 02:28:00;;;;;;;49.33;35.43;;;;;;;11.51;78.42;99311.12;2313944;75;20960;-81
2021/09/23 02:31:01;;;;;;;28.70;23.27;;;;;;;11.72;78.40;99311.88;2311587;77;20935;-79
2021/09/23 02:34:02;;;;;;;28.33;20.40;;;;;;;12.39;75.30;99299.75;2314059;75;20924;-80
2021/09/23 02:37:02;;;;;;;27.42;19.70;;;;;;;11.84;73.98;99300.75;2359269;75;20883;-80
2021/09/23 02:40:03;;;;;;;31.02;21.48;;;;;;;11.33;74.13;99306.48;2371703;75;20988;-80
2021/09/23 02:43:04;;;;;;;27.33;20.20;;;;;;;10.91;74.72;99293.98;2335959;75;20963;-80
2021/09/23 02:46:04;;;;;;;32.10;20.17;;;;;;;10.60;75.38;99293.42;2332060;76;20967;-80
2021/09/23 02:49:05;;;;;;;27.57;20.40;;;;;;;10.42;75.98;99285.25;2295877;77;21400;-81
2021/09/23 02:52:05;;;;;;;28.77;21.30;;;;;;;10.25;76.44;99288.80;2288017;76;20964;-80
2021/09/23 02:55:06;;;;;;;31.57;20.60;;;;;;;10.12;76.89;99294.58;2297637;76;21019;-80
2021/09/23 02:58:07;;;;;;;34.07;22.37;;;;;;;9.99;77.25;99283.01;2317928;76;20952;-80
2021/09/23 03:01:07;;;;;;;28.30;19.87;;;;;;;9.88;77.70;99279.30;2313809;76;20994;-81
2021/09/23 03:04:08;;;;;;;33.43;21.20;;;;;;;9.78;78.37;99276.03;2278466;77;20960;-80
2021/09/23 03:07:08;;;;;;;33.87;20.60;;;;;;;9.69;78.67;99282.34;2312040;76;20959;-80
2021/09/23 03:10:09;;;;;;;31.27;20.10;;;;;;;9.63;79.01;99289.61;2314749;76;20963;-82
2021/09/23 03:13:09;;;;;;;52.20;24.97;;;;;;;9.60;79.29;99280.84;2273615;77;20989;-81
2021/09/23 03:16:10;;;;;;;26.70;20.97;;;;;;;9.57;79.54;99286.44;2316255;76;20998;-81
2021/09/23 03:19:10;;;;;;;28.70;20.20;;;;;;;9.55;79.70;99287.25;2315378;76;20959;-80
2021/09/23 03:22:11;;;;;;;338.83;235.13;;;;;;;9.48;79.93;99281.41;2315501;76;20990;-80
2021/09/23 03:25:12;;;;;;;88.10;62.87;;;;;;;10.72;84.91;99278.41;2280514;77;21616;-81
2021/09/23 03:28:12;;;;;;;46.27;33.33;;;;;;;11.95;78.58;99276.48;2366382;75;20973;-80
2021/09/23 03:31:13;;;;;;;32.13;22.13;;;;;;;11.36;76.32;99278.22;2364338;75;20999;-81
2021/09/23 03:34:13;;;;;;;27.97;20.27;;;;;;;10.84;76.57;99279.94;2275908;76;20953;-80
2021/09/23 03:37:14;;;;;;;28.80;20.97;;;;;;;10.51;77.08;99291.95;2321808;75;20948;-80
2021/09/23 03:40:14;;;;;;;29.73;20.13;;;;;;;10.20;78.10;99298.26;2311729;77;21046;-80
2021/09/23 03:43:15;;;;;;;32.40;20.17;;;;;;;10.03;79.33;99297.88;2290520;77;21066;-80
2021/09/23 03:46:15;;;;;;;31.30;20.10;;;;;;;9.86;79.12;99286.20;2374330;75;20956;-78
2021/09/23 03:49:16;;;;;;;33.83;21.70;;;;;;;9.79;79.60;99279.09;2290093;77;21437;-79
2021/09/23 03:52:16;;;;;;;30.87;21.87;;;;;;;9.74;80.11;99270.30;2366818;75;20964;-80
2021/09/23 03:55:17;;;;;;;30.73;20.00;;;;;;;9.65;81.20;99276.61;2288770;76;21022;-80
2021/09/23 03:58:17;;;;;;;35.37;23.33;;;;;;;9.55;81.37;99272.50;2324210;75;20955;-80
2021/09/23 04:01:18;;;;;;;33.73;20.47;;;;;;;9.46;81.45;99259.22;2316006;77;21098;-80
2021/09/23 04:04:19;;;;;;;38.77;22.80;;;;;;;9.44;82.25;99260.92;2315674;75;20940;-80
2021/09/23 04:07:20;;;;;;;33.87;23.70;;;;;;;9.39;82.86;99262.53;2282140;76;20982;-80
2021/09/23 04:10:22;;;;;;;52.53;31.97;;;;;;;9.36;83.91;99264.19;2294172;76;20973;-79
2021/09/23 04:13:23;;;;;;;35.23;24.00;;;;;;;9.34;83.45;99253.73;2320151;75;20980;-80
2021/09/23 04:16:23;;;;;;;37.37;23.47;;;;;;;9.34;83.93;99256.77;2372324;75;21308;-80
2021/09/23 04:19:24;;;;;;;35.37;24.20;;;;;;;9.32;83.65;99256.72;2293293;77;21003;-80
2021/09/23 04:22:24;;;;;;;39.13;24.13;;;;;;;9.33;84.09;99248.06;2315639;75;20960;-80
2021/09/23 04:25:25;;;;;;;39.93;24.67;;;;;;;9.33;84.40;99246.77;2312078;77;21038;-78
2021/09/23 04:28:25;;;;;;;41.43;22.97;;;;;;;9.33;84.54;99249.79;2300312;76;20987;-80
2021/09/23 04:31:26;;;;;;;42.00;25.10;;;;;;;9.38;84.97;99244.27;2363639;75;21294;-79
2021/09/23 04:34:26;;;;;;;45.63;26.17;;;;;;;9.39;84.73;99242.99;2319279;75;20950;-80
2021/09/23 04:37:27;;;;;;;40.33;25.00;;;;;;;9.41;85.14;99241.30;2297145;76;20959;-79
2021/09/23 04:40:27;;;;;;;36.87;24.87;;;;;;;9.42;85.16;99228.73;2292273;76;20999;-80
2021/09/23 04:43:28;;;;;;;39.03;25.70;;;;;;;9.49;85.20;99234.54;2333418;74;20928;-79
2021/09/23 04:46:28;;;;;;;35.67;23.93;;;;;;;9.58;85.09;99223.47;2364521;75;20956;-80
2021/09/23 04:49:29;;;;;;;41.03;25.43;;;;;;;9.63;85.23;99219.23;2283656;76;21332;-80
2021/09/23 04:52:30;;;;;;;42.50;25.83;;;;;;;9.65;85.06;99230.58;2326671;74;20958;-79
2021/09/23 04:55:30;;;;;;;36.23;24.43;;;;;;;9.63;85.15;99214.02;2310712;75;20999;-79
2021/09/23 04:58:31;;;;;;;34.77;24.10;;;;;;;9.68;85.28;99209.78;2309860;77;21049;-79
2021/09/23 05:01:31;;;;;;;41.27;25.33;;;;;;;9.72;85.21;99215.52;2305410;77;21371;-80
2021/09/23 05:04:32;;;;;;;40.13;26.23;;;;;;;9.78;85.18;99208.25;2313680;77;21394;-80
2021/09/23 05:07:32;;;;;;;38.03;25.27;;;;;;;9.82;85.18;99208.34;2287019;76;21030;-81
2021/09/23 05:10:35;;;;;;;38.57;24.80;;;;;;;9.90;85.12;99209.37;2313576;76;20987;-80
2021/09/23 05:13:35;;;;;;;36.80;23.50;;;;;;;9.95;85.03;99209.90;2311895;77;21009;-80
2021/09/23 05:16:36;;;;;;;41.03;23.70;;;;;;;10.02;85.09;99211.35;2283200;77;20959;-80
2021/09/23 05:19:37;;;;;;;35.47;24.40;;;;;;;10.07;85.19;99214.05;2366697;74;20944;-80
2021/09/23 05:22:38;;;;;;;35.20;23.20;;;;;;;10.06;85.15;99213.59;2295110;76;21014;-80
2021/09/23 05:28:40;;;;;;;35.60;23.27;;;;;;;10.08;85.23;99201.46;2282123;76;20983;-79
2021/09/23 05:31:41;;;;;;;40.07;23.63;;;;;;;10.12;85.39;99191.12;2313642;76;20924;-80
2021/09/23 05:34:41;;;;;;;42.37;24.03;;;;;;;10.19;85.17;99195.60;2315880;76;20959;-80
2021/09/23 05:37:42;;;;;;;39.90;23.30;;;;;;;10.24;85.13;99200.94;2313897;76;20987;-81
2021/09/23 05:40:43;;;;;;;42.13;26.60;;;;;;;10.27;85.29;99206.21;2312341;76;21006;-81
2021/09/23 05:43:43;;;;;;;28.63;20.57;;;;;;;10.27;85.05;99197.08;2315670;76;20960;-81
2021/09/23 05:46:44;;;;;;;35.47;24.27;;;;;;;10.33;85.35;99192.40;2276916;77;21008;-81
2021/09/23 05:49:44;;;;;;;34.10;21.90;;;;;;;10.34;85.00;99195.04;2304310;77;20958;-81
2021/09/23 05:52:46;;;;;;;32.00;21.20;;;;;;;10.43;85.05;99192.63;2308310;77;20994;-79
2021/09/23 05:55:46;;;;;;;30.37;20.93;;;;;;;10.50;84.97;99190.58;2303684;76;21019;-80
2021/09/23 05:58:47;;;;;;;35.73;23.40;;;;;;;10.55;84.73;99196.30;2280808;77;21332;-81
2021/09/23 06:01:47;;;;;;;34.43;22.80;;;;;;;10.59;84.59;99197.69;2315994;75;21315;-79
2021/09/23 06:04:48;;;;;;;36.10;21.97;;;;;;;10.64;84.47;99188.20;2313484;75;21003;-80
2021/09/23 06:07:48;;;;;;;36.47;23.37;;;;;;;10.64;84.30;99188.20;2272553;76;20936;-79
2021/09/23 06:10:49;;;;;;;40.53;24.83;;;;;;;10.66;84.44;99191.72;2313557;75;21197;-80
2021/09/23 06:13:49;;;;;;;34.13;22.40;;;;;;;10.71;84.35;99184.84;2275131;76;20944;-80
2021/09/23 06:16:50;;;;;;;30.43;20.13;;;;;;;10.74;84.32;99188.81;2301421;76;21034;-81
2021/09/23 06:19:50;;;;;;;35.23;23.23;;;;;;;10.83;84.25;99187.66;2290226;77;20948;-81
2021/09/23 06:22:51;;;;;;;33.87;21.63;;;;;;;10.90;84.08;99182.53;2368515;75;20998;-82
2021/09/23 06:25:53;;;;;;;41.07;23.13;;;;;;;10.96;84.26;99179.59;2377478;75;21018;-81
2021/09/23 06:28:55;;;;;;;34.90;22.73;;;;;;;11.00;84.06;99173.55;2289771;77;21356;-81
2021/09/23 06:31:56;;;;;;;30.20;19.87;;;;;;;11.13;83.72;99174.62;2327017;74;21319;-82
2021/09/23 06:34:57;;;;;;;30.37;19.77;;;;;;;11.29;83.52;99174.44;2310048;75;20931;-82
2021/09/23 06:37:57;;;;;;;40.13;20.27;;;;;;;11.41;83.08;99178.11;2278402;76;20932;-82
2021/09/23 06:40:58;;;;;;;28.27;19.67;;;;;;;11.48;82.97;99159.46;2363202;75;20984;-80
2021/09/23 06:44:00;;;;;;;32.13;18.75;;;;;;;11.59;82.61;99159.17;2323716;75;21410;-81
2021/09/23 06:47:01;;;;;;;24.18;17.42;;;;;;;11.67;82.58;99154.91;2308876;75;21039;-81
2021/09/23 06:50:04;;;;;;;30.77;18.93;;;;;;;11.69;82.34;99157.12;2246532;76;20959;-81
2021/09/23 06:53:04;;;;;;;28.77;18.17;;;;;;;11.65;82.34;99160.98;2315157;76;20974;-81
2021/09/23 06:56:05;;;;;;;24.87;18.13;;;;;;;11.68;82.41;99151.88;2278470;77;20938;-82
2021/09/23 06:59:05;;;;;;;28.07;18.00;;;;;;;11.73;82.10;99144.53;2311630;76;21395;-81
2021/09/23 07:02:06;;;;;;;26.60;18.32;;;;;;;11.85;82.00;99149.05;2314016;76;20960;-83
2021/09/23 07:05:06;;;;;;;27.95;17.73;;;;;;;12.03;81.54;99146.64;2313698;76;20973;-78
2021/09/23 07:08:07;;;;;;;24.23;18.23;;;;;;;12.18;81.41;99138.54;2311463;76;20951;-82
2021/09/23 07:11:08;;;;;;;23.73;17.10;;;;;;;12.42;81.12;99137.47;2314282;76;21002;-81
2021/09/23 07:14:08;;;;;;;25.12;16.85;;;;;;;12.74;80.44;99137.30;2317389;76;20952;-82
2021/09/23 07:17:09;;;;;;;28.25;16.62;;;;;;;12.95;79.23;99128.72;2275209;76;21021;-79
2021/09/23 07:20:09;;;;;;;28.35;17.15;;;;;;;12.92;79.35;99131.75;2315282;76;21071;-81
2021/09/23 07:23:10;;;;;;;25.05;15.90;;;;;;;12.82;79.02;99122.95;2315437;76;20967;-82
2021/09/23 07:26:11;;;;;;;26.05;16.12;;;;;;;12.84;79.20;99124.27;2315041;76;21344;-83
2021/09/23 07:29:14;;;;;;;25.30;15.53;;;;;;;12.97;78.93;99124.80;2314949;76;21340;-82
2021/09/23 07:32:15;;;;;;;22.40;16.12;;;;;;;13.15;77.95;99122.77;2315140;76;20952;-82
2021/09/23 07:35:16;;;;;;;31.15;18.07;;;;;;;13.34;78.06;99128.15;2315657;76;21051;-81
2021/09/23 07:38:16;;;;;;;25.12;15.30;;;;;;;13.55;77.97;99126.50;2283870;77;20952;-82
2021/09/23 07:41:17;;;;;;;22.07;15.95;;;;;;;13.85;76.81;99121.80;2316578;76;20994;-82
2021/09/23 07:44:20;;;;;;;30.17;16.60;;;;;;;14.13;76.18;99127.59;2309568;76;20959;-80
2021/09/23 07:47:22;;;;;;;24.92;17.57;;;;;;;14.43;74.59;99129.86;2316663;76;21565;-81
2021/09/23 07:50:23;;;;;;;32.20;17.02;;;;;;;14.55;74.42;99128.11;2311602;76;21007;-82
2021/09/23 07:53:30;;;;;;;25.48;14.18;;;;;;;14.46;74.08;99118.92;2316865;76;21081;-81
2021/09/23 07:56:27;;;;;;;48.73;17.65;;;;;;;14.49;73.16;99119.36;2312492;76;21039;-82
2021/09/23 07:59:30;;;;;;;31.87;16.02;;;;;;;14.46;73.79;99120.66;2281779;76;21260;-82
2021/09/23 08:02:30;;;;;;;28.65;15.38;;;;;;;14.44;72.70;99118.48;2355459;75;20926;-81
2021/09/23 08:05:31;;;;;;;27.07;14.80;;;;;;;14.53;73.20;99110.16;2359005;75;20971;-80
2021/09/23 08:08:32;;;;;;;31.65;17.25;;;;;;;14.65;72.81;99115.85;2289805;76;20943;-80
2021/09/23 08:11:34;;;;;;;25.77;13.70;;;;;;;14.63;72.71;99102.72;2292984;77;20903;-81
2021/09/23 08:14:35;;;;;;;27.17;14.63;;;;;;;14.85;72.03;99102.73;2310035;76;20952;-80
2021/09/23 08:17:36;;;;;;;35.80;15.80;;;;;;;14.99;72.18;99100.96;2284903;77;21341;-80
2021/09/23 08:20:37;;;;;;;34.53;16.15;;;;;;;15.06;71.14;99090.87;2286996;76;21382;-81
2021/09/23 08:23:41;;;;;;;26.10;14.60;;;;;;;15.12;70.25;99093.48;2316459;76;20962;-80
2021/09/23 08:26:42;;;;;;;28.07;13.32;;;;;;;15.21;71.31;99093.45;2316153;75;21018;-82
2021/09/23 08:29:45;;;;;;;24.47;14.68;;;;;;;15.43;70.44;99090.75;2293209;76;20975;-80
2021/09/23 08:32:45;;;;;;;65.35;14.40;;;;;;;15.63;68.89;99091.61;2349141;74;20959;-79
2021/09/23 08:35:45;;;;;;;22.65;12.07;;;;;;;15.78;68.92;99084.09;2310736;76;20967;-81
2021/09/23 08:38:46;;;;;;;22.70;12.28;;;;;;;15.73;68.25;99086.73;2311689;75;20931;-81
2021/09/23 08:41:49;;;;;;;26.50;12.63;;;;;;;15.64;68.86;99084.16;2316715;76;20955;-82
2021/09/23 08:44:49;;;;;;;25.77;13.08;;;;;;;15.51;68.94;99079.77;2312956;76;20967;-82
2021/09/23 08:47:50;;;;;;;29.82;13.13;;;;;;;15.45;69.18;99075.84;2313342;76;21317;-81
2021/09/23 08:50:50;;;;;;;22.52;12.13;;;;;;;15.37;68.23;99073.69;2312393;76;21004;-81
2021/09/23 08:53:51;;;;;;;33.50;12.18;;;;;;;15.34;69.43;99079.83;2282298;77;20908;-82
2021/09/23 08:56:55;;;;;;;25.35;11.73;;;;;;;15.28;68.62;99080.73;2346374;75;20929;-81
2021/09/23 08:59:56;;;;;;;27.75;11.57;;;;;;;15.22;68.55;99086.00;2364270;75;20942;-81
2021/09/23 09:02:57;;;;;;;23.42;12.55;;;;;;;15.35;68.45;99085.96;2367345;75;20978;-81
2021/09/23 09:05:57;;;;;;;25.35;11.25;;;;;;;15.56;68.82;99070.97;2362745;75;20974;-82
2021/09/23 09:08:58;;;;;;;26.10;11.90;;;;;;;15.90;68.14;99070.86;2304090;75;21295;-82
2021/09/23 09:11:59;;;;;;;22.87;10.65;;;;;;;16.04;67.22;99066.82;2298377;77;21632;-82
2021/09/23 09:14:59;;;;;;;24.55;11.45;;;;;;;16.20;67.04;99061.88;2377417;75;20932;-82
2021/09/23 09:21:04;;;;;;;20.30;10.53;;;;;;;16.40;66.51;99039.33;2340537;75;21380;-80
2021/09/23 09:24:06;;;;;;;23.60;10.15;;;;;;;16.42;65.96;99040.19;2340426;75;21284;-80
2021/09/23 09:27:06;;;;;;;791.60;88.72;;;;;;;16.35;66.17;99036.73;2269504;77;20999;-83
2021/09/23 09:30:07;;;;;;;26.17;9.70;;;;;;;16.45;66.17;99029.18;2326208;75;20975;-82
2021/09/23 09:33:07;;;;;;;21.48;9.10;;;;;;;16.68;65.68;99021.58;2315349;75;20944;-82
2021/09/23 09:36:08;;;;;;;23.65;7.70;;;;;;;16.78;64.49;99017.95;2312626;76;20967;-78
2021/09/23 09:39:09;;;;;;;21.52;7.45;;;;;;;16.86;63.78;99016.11;2312567;76;21011;-83
2021/09/23 09:42:09;;;;;;;16.45;7.90;;;;;;;16.92;64.47;99010.77;2281788;77;20954;-80
2021/09/23 09:45:10;;;;;;;16.48;7.03;;;;;;;16.98;64.34;99000.16;2298528;77;20964;-80
2021/09/23 09:48:16;;;;;;;12.68;6.35;;;;;;;17.01;64.48;99002.75;2288621;77;21355;-80
2021/09/23 09:51:16;;;;;;;13.22;6.37;;;;;;;16.92;63.13;98996.72;2369174;75;20939;-82
2021/09/23 09:54:17;;;;;;;18.85;8.03;;;;;;;16.81;63.21;99000.78;2366873;75;20964;-83
2021/09/23 09:57:17;;;;;;;17.77;7.50;;;;;;;16.75;63.26;98992.95;2365565;75;21361;-81
2021/09/23 10:00:18;;;;;;;18.90;7.50;;;;;;;16.77;64.05;98985.89;2373077;75;20956;-82
2021/09/23 10:03:19;;;;;;;19.07;7.15;;;;;;;16.93;63.02;98979.56;2281836;76;20919;-80
2021/09/23 10:06:19;;;;;;;19.92;6.72;;;;;;;17.03;63.17;98973.73;2309173;75;20940;-82
2021/09/23 10:09:20;;;;;;;12.33;6.00;;;;;;;17.31;63.39;98961.06;2314531;75;20960;-82
2021/09/23 10:12:20;;;;;;;17.27;6.20;;;;;;;17.64;62.20;98948.74;2312410;76;21315;-82
2021/09/23 10:15:21;;;;;;;12.75;6.20;;;;;;;17.81;61.99;98951.16;2306158;77;21360;-82
2021/09/23 10:18:21;;;;;;;13.75;5.65;;;;;;;17.86;60.26;98951.96;2313879;76;21365;-82
2021/09/23 10:24:09;;;;;;;15.53;6.62;;;;;;;17.91;60.21;98928.13;2238462;79;22386;-82
2021/09/23 10:30:31;;;;;;;14.87;6.55;;;;;;;17.78;58.33;98911.16;2189387;81;21015;-82
2021/09/23 10:33:31;;;;;;;19.17;6.42;;;;;;;17.68;60.41;98916.61;2189104;81;20951;-81
2021/09/23 10:36:32;;;;;;;20.52;6.33;;;;;;;17.60;60.03;98908.77;2189838;81;20984;-80
2021/09/23 10:39:34;;;;;;;10.35;5.80;;;;;;;17.72;59.02;98888.81;2189667;81;21700;-81
2021/09/23 10:42:35;;;;;;;12.55;5.42;;;;;;;17.59;58.85;98881.95;2189386;81;21071;-81
2021/09/23 10:45:40;;;;;;;12.63;6.25;;;;;;;17.46;60.02;98887.00;2188229;81;21438;-81
2021/09/23 10:48:41;;;;;;;13.53;6.28;;;;;;;17.45;60.72;98872.06;2189506;81;20967;-79
2021/09/23 10:51:41;;;;;;;13.55;6.62;;;;;;;17.53;60.55;98870.17;2189404;81;20985;-81
2021/09/23 11:28:58;;;;;;;12.28;7.00;;;;;;;16.65;62.06;98858.17;2239462;79;22955;-79
2021/09/23 11:31:59;;;;;;;9.43;5.83;;;;;;;16.66;62.68;98846.77;2190501;81;21000;-80
2021/09/23 11:35:00;;;;;;;13.90;7.50;;;;;;;16.74;62.42;98833.92;2191130;81;21035;-80
2021/09/23 11:38:01;;;;;;;16.93;7.53;;;;;;;16.70;62.26;98829.58;2190249;81;20980;-81
2021/09/23 11:41:02;;;;;;;11.05;6.50;;;;;;;16.81;62.49;98828.12;2190756;81;21054;-80
2021/09/23 11:44:05;;;;;;;12.70;6.40;;;;;;;16.96;62.49;98829.23;2171796;81;21478;-83
2021/09/23 11:47:05;;;;;;;12.90;6.30;;;;;;;17.07;61.59;98820.72;2191156;81;20983;-82
2021/09/23 11:50:05;;;;;;;14.65;7.17;;;;;;;17.01;61.40;98818.17;2190722;81;21288;-81
2021/09/23 11:56:09;;;;;;;8.65;6.17;;;;;;;17.37;61.58;98810.63;2173794;81;20975;-81
2021/09/23 11:59:09;;;;;;;19.25;7.03;;;;;;;17.40;60.79;98811.89;2190254;81;21348;-82
2021/09/23 12:02:10;;;;;;;11.85;5.58;;;;;;;17.48;60.92;98796.36;2190308;81;21320;-81
2021/09/23 12:05:10;;;;;;;15.93;7.72;;;;;;;17.54;60.50;98798.47;2189663;81;20987;-81
2021/09/23 12:08:11;;;;;;;14.50;6.70;;;;;;;17.53;60.98;98792.32;2188743;81;21023;-81
2021/09/23 12:11:12;;;;;;;14.85;6.12;;;;;;;17.56;60.91;98789.63;2189636;81;20963;-81
2021/09/23 12:14:12;;;;;;;9.55;5.70;;;;;;;17.60;61.08;98775.48;2189830;81;21031;-82
2021/09/23 12:17:13;;;;;;;11.48;6.22;;;;;;;17.61;60.51;98771.95;2190145;81;21019;-80
2021/09/23 12:20:13;;;;;;;20.70;6.33;;;;;;;17.61;61.06;98773.27;2190214;81;20994;-81
2021/09/23 12:23:14;;;;;;;11.10;5.87;;;;;;;17.59;60.54;98763.19;2189091;81;20952;-81
2021/09/23 12:26:14;;;;;;;11.85;5.72;;;;;;;17.54;60.71;98753.16;2188128;81;21513;-80
2021/09/23 12:29:15;;;;;;;11.08;5.03;;;;;;;17.49;60.84;98749.73;2173174;81;20984;-80
2021/09/23 12:32:17;;;;;;;9.28;5.53;;;;;;;17.41;61.01;98742.39;2171917;81;20920;-82
2021/09/23 12:35:18;;;;;;;14.07;6.22;;;;;;;17.46;61.16;98735.27;2172057;82;20956;-80
2021/09/23 12:38:18;;;;;;;11.10;5.90;;;;;;;17.38;60.97;98724.84;2171736;82;21059;-81
2021/09/23 12:41:19;;;;;;;9.90;5.70;;;;;;;17.33;61.46;98717.88;2170974;82;20925;-80
2021/09/23 12:44:20;;;;;;;11.38;5.58;;;;;;;17.38;61.43;98709.02;2170897;81;20991;-82
2021/09/23 12:47:20;;;;;;;11.70;5.45;;;;;;;17.40;61.90;98708.99;2171412;81;20980;-80
2021/09/23 12:50:21;;;;;;;9.15;5.47;;;;;;;17.43;61.95;98705.84;2171393;81;20995;-82
2021/09/23 12:53:22;;;;;;;15.50;6.35;;;;;;;17.44;61.41;98702.31;2171514;82;21512;-80
2021/09/23 12:56:23;;;;;;;11.55;5.58;;;;;;;17.33;61.45;98691.05;2171756;81;21156;-81
2021/09/23 12:59:23;;;;;;;15.00;6.20;;;;;;;17.47;62.04;98685.11;2171419;82;20936;-81
2021/09/23 13:02:24;;;;;;;12.10;6.10;;;;;;;17.85;61.55;98675.61;2170901;81;20960;-81
2021/09/23 13:05:28;;;;;;;12.63;6.35;;;;;;;18.05;60.68;98672.56;2170182;82;20976;-82
2021/09/23 13:08:27;;;;;;;15.40;6.80;;;;;;;18.19;60.78;98666.98;2125750;83;21003;-82
2021/09/23 13:11:27;;;;;;;13.13;5.60;;;;;;;18.19;60.42;98659.94;2126752;84;20960;-81
2021/09/23 13:14:28;;;;;;;11.15;6.35;;;;;;;18.17;59.83;98662.19;2125724;84;20959;-81
2021/09/23 13:17:28;;;;;;;26.97;7.30;;;;;;;18.17;60.44;98656.45;2125867;84;20944;-81
2021/09/23 13:20:29;;;;;;;13.80;6.15;;;;;;;18.44;61.19;98657.20;2124734;84;20948;-79
2021/09/23 13:23:30;;;;;;;17.50;7.28;;;;;;;18.74;61.86;98659.61;2124581;84;20984;-80
2021/09/23 13:26:31;;;;;;;14.73;6.62;;;;;;;19.18;60.49;98660.77;2125122;84;20982;-80
2021/09/23 13:29:31;;;;;;;12.13;6.12;;;;;;;19.22;59.77;98638.61;2134027;83;20999;-80
2021/09/23 13:32:32;;;;;;;14.60;6.17;;;;;;;19.26;59.73;98634.98;2135044;83;20955;-80
2021/09/23 13:35:32;;;;;;;10.53;6.08;;;;;;;19.33;59.61;98628.16;2134700;83;20959;-80
2021/09/23 13:38:33;;;;;;;15.78;6.50;;;;;;;19.43;58.99;98618.64;2134556;83;21465;-80
2021/09/23 13:41:33;;;;;;;15.25;6.47;;;;;;;19.32;59.77;98621.58;2136039;83;20977;-79
2021/09/23 13:44:34;;;;;;;15.85;6.22;;;;;;;19.43;60.35;98622.62;2136889;83;20995;-79
2021/09/23 13:47:34;;;;;;;15.75;6.33;;;;;;;19.41;59.05;98620.87;2135864;83;21010;-79
2021/09/23 13:50:35;;;;;;;39.75;8.05;;;;;;;19.17;59.80;98610.95;2135775;83;21488;-80
2021/09/23 13:53:35;;;;;;;18.87;6.55;;;;;;;19.25;60.71;98604.13;2136597;83;20956;-80
2021/09/23 13:56:36;;;;;;;14.55;6.53;;;;;;;19.45;60.17;98599.16;2136141;83;21092;-80
2021/09/23 13:59:36;;;;;;;15.20;5.90;;;;;;;19.43;60.08;98586.43;2136512;83;20983;-81
2021/09/23 14:02:37;;;;;;;14.45;6.15;;;;;;;19.31;58.40;98580.16;2137401;83;21023;-81
2021/09/23 14:05:37;;;;;;;10.88;5.70;;;;;;;18.86;58.92;98578.23;2137320;83;20984;-80
2021/09/23 14:08:38;;;;;;;8.43;6.15;;;;;;;18.49;59.50;98578.25;2137501;83;21089;-80
2021/09/23 14:11:38;;;;;;;9.85;5.90;;;;;;;18.19;60.12;98571.44;2137770;83;21379;-80
2021/09/23 14:14:39;;;;;;;10.88;5.92;;;;;;;17.97;60.79;98568.41;2137581;83;20983;-81
2021/09/23 14:17:39;;;;;;;11.78;5.85;;;;;;;17.79;61.07;98562.22;2137712;83;21110;-80
2021/09/23 14:20:40;;;;;;;15.48;6.40;;;;;;;17.65;60.89;98561.16;2137392;83;20940;-79
2021/09/23 14:23:40;;;;;;;20.10;12.18;;;;;;;17.55;61.65;98545.55;2136951;83;20959;-79
2021/09/23 14:26:42;;;;;;;14.07;7.30;;;;;;;18.18;63.76;98544.60;2181780;81;21073;-80
2021/09/23 14:29:43;;;;;;;13.00;7.25;;;;;;;18.82;61.50;98539.11;2189686;81;21011;-80
2021/09/23 14:32:43;;;;;;;9.98;6.70;;;;;;;18.75;60.25;98530.47;2190283;81;20972;-80
2021/09/23 14:35:44;;;;;;;13.55;7.53;;;;;;;18.54;60.86;98531.44;2189852;81;21019;-81
2021/09/23 14:38:46;;;;;;;16.70;7.37;;;;;;;18.46;60.52;98527.66;2189719;81;21010;-82
2021/09/23 14:41:46;;;;;;;11.85;6.35;;;;;;;18.14;61.29;98530.59;2190132;81;21398;-80
2021/09/23 14:44:47;;;;;;;12.00;6.80;;;;;;;17.89;61.27;98529.87;2189996;81;20976;-81
2021/09/23 14:47:47;;;;;;;9.88;6.20;;;;;;;17.62;61.89;98528.68;2189789;81;20988;-81